Time;durP1;ratioP1;P1;durP2;ratioP2;P2;SDS_P1;SDS_P2;PMS_P1;PMS_P2;Temp;Humidity;BMP_temperature;BMP_pressure;BME280_temperature;BME280_humidity;BME280_pressure;Samples;Min_cycle;Max_cycle;Signal;HPM_P1;HPM_P2
2022/04/08 00:01:24;;;;;;;;;0.00;0.00;;;;;7.44;73.80;97800.03;5078492;28;8832;-62
2022/04/08 00:03:52;;;;;;;;;0.60;0.60;;;;;7.44;73.68;97808.00;5093889;28;8832;-62
2022/04/08 00:06:20;;;;;;;;;0.40;0.00;;;;;7.43;73.52;97814.28;5078040;28;8833;-61
2022/04/08 00:08:48;;;;;;;;;0.00;0.00;;;;;7.41;73.68;97819.72;5087849;28;8857;-61
2022/04/08 00:11:15;;;;;;;;;0.00;0.00;;;;;7.31;73.96;97818.97;5076767;28;9282;-62
2022/04/08 00:13:43;;;;;;;;;0.00;0.00;;;;;7.20;74.27;97828.97;5077986;28;8853;-62
2022/04/08 00:16:11;;;;;;;;;0.00;0.00;;;;;7.11;74.54;97830.72;5078982;28;8853;-63
2022/04/08 00:18:39;;;;;;;;;0.00;0.00;;;;;7.09;74.53;97842.44;5095811;28;8828;-62
2022/04/08 00:21:07;;;;;;;;;0.00;0.00;;;;;7.08;74.40;97854.00;5097450;28;8848;-62
2022/04/08 00:23:34;;;;;;;;;0.00;0.00;;;;;6.98;74.89;97858.56;5097952;28;8863;-63
2022/04/08 00:26:02;;;;;;;;;0.00;0.00;;;;;6.86;74.93;97867.69;5090940;28;8831;-63
2022/04/08 00:28:30;;;;;;;;;0.00;0.00;;;;;6.80;75.36;97868.28;5076541;28;8837;-62
2022/04/08 00:30:58;;;;;;;;;0.00;0.00;;;;;6.79;74.99;97872.75;5077087;28;8924;-61
2022/04/08 00:33:26;;;;;;;;;1.40;1.40;;;;;6.82;74.56;97874.25;5094647;28;8824;-62
2022/04/08 00:35:53;;;;;;;;;2.20;2.20;;;;;6.82;75.31;97884.84;5082569;28;8865;-63
2022/04/08 00:38:21;;;;;;;;;1.00;0.40;;;;;6.81;75.15;97873.41;5078645;28;8833;-63
2022/04/08 00:40:49;;;;;;;;;3.60;3.20;;;;;6.82;74.74;97885.66;5116439;28;8967;-62
2022/04/08 00:43:17;;;;;;;;;0.20;0.20;;;;;6.82;75.11;97898.06;5117300;28;8901;-63
2022/04/08 00:45:45;;;;;;;;;6.00;4.00;;;;;6.66;74.96;97901.34;5117463;28;8979;-62
2022/04/08 00:48:12;;;;;;;;;0.00;0.00;;;;;6.50;75.78;97909.09;5099063;28;8816;-62
2022/04/08 00:50:41;;;;;;;;;1.40;1.40;;;;;6.39;76.27;97913.75;5096329;28;8839;-63
2022/04/08 00:53:08;;;;;;;;;1.00;1.00;;;;;6.31;76.70;97929.50;5096955;28;8823;-62
2022/04/08 00:55:36;;;;;;;;;0.40;0.40;;;;;6.27;76.81;97925.47;5097388;28;8855;-63
2022/04/08 00:58:04;;;;;;;;;1.00;1.00;;;;;6.23;76.37;97922.28;5112146;28;8822;-62
2022/04/08 01:00:32;;;;;;;;;0.40;0.40;;;;;6.21;77.03;97936.63;5117707;28;8859;-62
2022/04/08 01:02:59;;;;;;;;;1.00;1.00;;;;;6.19;76.68;97930.63;5107235;28;8947;-62
2022/04/08 01:05:27;;;;;;;;;0.40;0.40;;;;;6.15;76.82;97935.38;5104342;28;8842;-62
2022/04/08 01:07:55;;;;;;;;;0.80;0.80;;;;;6.12;76.75;97945.41;5116458;28;8840;-63
2022/04/08 01:10:23;;;;;;;;;0.00;0.00;;;;;6.09;77.57;97958.91;5116702;28;8844;-62
2022/04/08 01:12:51;;;;;;;;;2.40;1.00;;;;;6.05;77.58;97949.59;5116278;28;8842;-62
2022/04/08 01:15:19;;;;;;;;;0.00;0.00;;;;;5.99;77.62;97950.19;5116046;28;9752;-62
2022/04/08 01:17:46;;;;;;;;;1.00;0.20;;;;;5.93;77.91;97954.19;5098936;28;8827;-62
2022/04/08 01:20:14;;;;;;;;;1.00;0.00;;;;;5.88;77.83;97951.19;5096163;28;8827;-63
2022/04/08 01:22:42;;;;;;;;;3.00;1.00;;;;;5.85;78.56;97963.81;5098006;28;8950;-62
2022/04/08 01:25:10;;;;;;;;;0.80;0.80;;;;;5.84;77.87;97972.72;5096462;28;8850;-61
2022/04/08 01:27:37;;;;;;;;;1.00;1.00;;;;;5.82;77.82;97970.22;5100489;28;8846;-62
2022/04/08 01:30:05;;;;;;;;;3.00;1.00;;;;;5.82;78.24;97979.94;5113523;28;8830;-61
2022/04/08 01:32:33;;;;;;;;;1.40;1.40;;;;;5.83;78.37;97982.44;5095155;28;8944;-63
2022/04/08 01:35:01;;;;;;;;;3.00;2.60;;;;;5.87;78.11;97983.00;5095222;28;8889;-62
2022/04/08 01:37:28;;;;;;;;;3.00;1.00;;;;;5.87;78.04;97989.13;5094334;28;8912;-61
2022/04/08 01:39:56;;;;;;;;;1.00;1.00;;;;;5.91;77.88;97989.69;5095369;28;8831;-61
2022/04/08 01:42:24;;;;;;;;;0.80;0.80;;;;;5.93;77.70;97987.72;5094991;28;9535;-61
2022/04/08 01:44:52;;;;;;;;;1.40;1.00;;;;;5.95;77.99;97991.03;5094533;28;8924;-62
2022/04/08 01:47:20;;;;;;;;;1.80;1.00;;;;;5.95;77.21;97997.19;5107625;28;8860;-61
2022/04/08 01:49:48;;;;;;;;;0.20;0.20;;;;;5.97;77.90;98011.06;5114944;28;8919;-62
2022/04/08 01:52:16;;;;;;;;;0.20;0.20;;;;;6.00;77.32;98012.59;5112903;28;8974;-62
2022/04/08 01:54:44;;;;;;;;;0.00;0.00;;;;;6.02;77.40;98011.50;5114867;28;8868;-61
2022/04/08 01:57:11;;;;;;;;;1.00;1.00;;;;;6.05;77.25;98010.34;5115515;28;8823;-63
2022/04/08 01:59:39;;;;;;;;;1.00;1.00;;;;;6.06;77.57;98015.50;5116275;28;8814;-61
2022/04/08 02:02:07;;;;;;;;;1.40;1.00;;;;;6.07;77.15;98016.34;5111624;28;8867;-62
2022/04/08 02:04:35;;;;;;;;;1.80;1.80;;;;;6.07;77.04;98029.56;5095394;28;8842;-62
2022/04/08 02:07:06;;;;;;;;;1.80;1.80;;;;;6.06;76.70;98022.59;5095776;28;8934;-67
2022/04/08 02:09:34;;;;;;;;;1.00;1.00;;;;;6.08;77.29;98025.94;5113350;28;8910;-62
2022/04/08 02:12:02;;;;;;;;;1.00;1.00;;;;;6.10;77.11;98032.75;5115970;28;8943;-61
2022/04/08 02:14:29;;;;;;;;;1.80;0.80;;;;;6.11;77.16;98034.41;5115974;28;8825;-62
2022/04/08 02:16:57;;;;;;;;;1.00;0.80;;;;;6.14;77.26;98038.59;5104699;28;8834;-62
2022/04/08 02:19:25;;;;;;;;;3.20;2.20;;;;;6.13;77.18;98047.47;5108193;28;9594;-62
2022/04/08 02:21:59;;;;;;;;;1.80;1.00;;;;;6.13;76.94;98044.81;5088141;27;14476;-63
2022/04/08 02:24:27;;;;;;;;;2.20;2.20;;;;;6.13;77.01;98045.66;5071355;28;8837;-63
2022/04/08 02:26:55;;;;;;;;;1.00;0.00;;;;;6.15;76.78;98058.75;5070744;28;8836;-63
2022/04/08 02:29:23;;;;;;;;;0.60;0.60;;;;;6.13;76.97;98069.44;5071438;28;8974;-63
2022/04/08 02:31:50;;;;;;;;;0.80;0.80;;;;;6.08;77.01;98063.72;5072087;28;8826;-63
2022/04/08 02:34:19;;;;;;;;;1.00;0.60;;;;;6.04;77.20;98072.09;5071345;28;8821;-63
2022/04/08 02:36:46;;;;;;;;;0.40;0.00;;;;;6.01;76.93;98064.44;5074131;28;8837;-63
2022/04/08 02:39:14;;;;;;;;;0.00;0.00;;;;;5.97;77.08;98073.63;5085397;28;8960;-62
2022/04/08 02:41:42;;;;;;;;;0.00;0.00;;;;;5.92;76.61;98081.97;5070918;28;9631;-64
2022/04/08 02:44:10;;;;;;;;;0.00;0.00;;;;;5.87;77.23;98088.63;5071695;28;8931;-63
2022/04/08 02:46:38;;;;;;;;;0.00;0.00;;;;;5.84;76.95;98083.66;5077841;28;8831;-63
2022/04/08 02:49:05;;;;;;;;;0.00;0.00;;;;;5.80;77.55;98098.06;5090709;28;8819;-63
2022/04/08 02:51:33;;;;;;;;;0.80;0.60;;;;;5.76;77.42;98097.50;5072111;28;8829;-62
2022/04/08 02:54:01;;;;;;;;;0.20;0.20;;;;;5.79;77.33;98102.53;5071196;28;8841;-64
2022/04/08 02:56:29;;;;;;;;;0.00;0.00;;;;;5.85;77.08;98101.16;5071556;28;8849;-63
2022/04/08 02:58:57;;;;;;;;;0.00;0.00;;;;;5.91;77.29;98116.44;5071520;28;8837;-63
2022/04/08 03:01:24;;;;;;;;;0.60;0.60;;;;;5.95;76.86;98107.25;5070899;28;8849;-63
2022/04/08 03:03:52;;;;;;;;;0.00;0.00;;;;;5.97;76.42;98116.72;5086643;28;8850;-64
2022/04/08 03:06:20;;;;;;;;;0.00;0.00;;;;;5.99;76.58;98124.53;5090481;28;8954;-63
2022/04/08 03:08:48;;;;;;;;;0.00;0.00;;;;;6.00;76.83;98120.91;5077928;28;8837;-66
2022/04/08 03:11:18;;;;;;;;;0.60;0.60;;;;;5.99;76.67;98127.16;5086479;28;8815;-63
2022/04/08 03:13:45;;;;;;;;;1.00;1.00;;;;;6.01;76.28;98122.56;5090421;28;8844;-63
2022/04/08 03:16:13;;;;;;;;;0.00;0.00;;;;;5.99;76.50;98135.09;5087870;28;8844;-63
2022/04/08 03:18:40;;;;;;;;;0.00;0.00;;;;;5.99;76.31;98135.09;5070580;28;8960;-63
2022/04/08 03:21:08;;;;;;;;;0.00;0.00;;;;;5.98;76.52;98128.09;5058252;28;8847;-63
2022/04/08 03:23:39;;;;;;;;;0.60;0.00;;;;;6.01;76.20;98135.78;5050540;28;8841;-63
2022/04/08 03:26:07;;;;;;;;;0.60;0.60;;;;;5.99;76.58;98135.09;5067971;28;8822;-64
2022/04/08 03:28:34;;;;;;;;;0.00;0.00;;;;;5.96;76.09;98125.63;5069978;28;8907;-66
2022/04/08 03:31:02;;;;;;;;;1.00;0.00;;;;;5.98;76.92;98141.31;5070801;28;8842;-63
2022/04/08 03:33:30;;;;;;;;;0.60;0.60;;;;;5.99;76.80;98141.19;5056241;28;8839;-63
2022/04/08 03:35:58;;;;;;;;;0.00;0.00;;;;;6.03;76.48;98136.47;5056705;28;8858;-64
2022/04/08 03:38:25;;;;;;;;;0.80;0.80;;;;;6.04;76.41;98143.41;5055822;28;8830;-63
2022/04/08 03:40:53;;;;;;;;;1.00;0.80;;;;;6.07;76.18;98138.69;5052410;28;8832;-63
2022/04/08 03:43:21;;;;;;;;;1.00;0.00;;;;;6.09;76.42;98142.03;5036958;28;8851;-63
2022/04/08 03:45:49;;;;;;;;;3.00;3.00;;;;;6.10;76.08;98149.00;5036731;28;8888;-63
2022/04/08 03:48:17;;;;;;;;;2.20;1.00;;;;;6.12;76.26;98146.19;5037990;28;8867;-63
2022/04/08 03:50:44;;;;;;;;;1.00;1.00;;;;;6.13;75.78;98153.13;5050319;28;8815;-63
2022/04/08 03:53:13;;;;;;;;;2.20;0.60;;;;;6.14;76.07;98149.56;5056226;28;8818;-64
2022/04/08 03:55:41;;;;;;;;;1.00;1.00;;;;;6.13;75.97;98150.50;5055581;28;8811;-63
2022/04/08 03:58:09;;;;;;;;;3.20;3.20;;;;;6.13;76.35;98151.34;5041366;28;8825;-63
2022/04/08 04:00:36;;;;;;;;;3.00;1.80;;;;;6.13;76.67;98166.34;5036611;28;8899;-66
2022/04/08 04:03:04;;;;;;;;;1.40;1.40;;;;;6.13;76.54;98158.44;5045763;28;8847;-63
2022/04/08 04:05:34;;;;;;;;;3.80;3.80;;;;;6.12;76.07;98162.03;5056185;28;8842;-63
2022/04/08 04:08:01;;;;;;;;;0.00;0.00;;;;;6.11;76.39;98171.78;5055809;28;8822;-63
2022/04/08 04:10:29;;;;;;;;;1.40;1.00;;;;;6.10;76.10;98179.84;5046480;28;8836;-63
2022/04/08 04:12:58;;;;;;;;;1.80;1.40;;;;;6.10;76.36;98179.84;5048684;28;9026;-63
2022/04/08 04:15:26;;;;;;;;;1.00;1.00;;;;;6.07;75.89;98185.44;5055870;28;8915;-63
2022/04/08 04:17:53;;;;;;;;;3.00;3.00;;;;;6.06;76.75;98187.22;5039022;28;8849;-63
2022/04/08 04:20:21;;;;;;;;;0.80;0.80;;;;;6.03;76.21;98186.66;5035007;28;8843;-63
2022/04/08 04:22:48;;;;;;;;;2.60;1.40;;;;;6.00;76.26;98193.03;5034939;28;8828;-63
2022/04/08 04:25:16;;;;;;;;;2.20;1.00;;;;;5.98;76.77;98195.00;5034768;28;8833;-63
2022/04/08 04:27:44;;;;;;;;;2.80;1.80;;;;;5.96;76.17;98190.81;5018538;28;8832;-63
2022/04/08 04:30:12;;;;;;;;;2.40;2.20;;;;;5.93;76.53;98197.19;5042318;28;9525;-63
2022/04/08 04:32:39;;;;;;;;;3.00;3.00;;;;;5.94;76.29;98200.69;5053472;28;9507;-63
2022/04/08 04:35:08;;;;;;;;;3.60;3.60;;;;;5.92;77.03;98200.81;5055173;28;8834;-63
2022/04/08 04:37:41;;;;;;;;;3.20;3.20;;;;;5.91;76.73;98203.63;5047508;28;8828;-63
2022/04/08 04:40:09;;;;;;;;;2.20;2.20;;;;;5.88;76.38;98202.06;5034853;28;8855;-64
2022/04/08 04:42:37;;;;;;;;;1.00;1.00;;;;;5.88;76.10;98206.50;5035006;28;8847;-63
2022/04/08 04:45:04;;;;;;;;;3.00;2.20;;;;;5.87;76.51;98204.84;5034062;28;8832;-63
2022/04/08 04:47:32;;;;;;;;;1.00;1.00;;;;;5.86;76.17;98206.63;5035711;28;8857;-63
2022/04/08 04:49:59;;;;;;;;;1.40;1.00;;;;;5.87;76.36;98208.31;5035934;28;8853;-63
2022/04/08 04:52:27;;;;;;;;;0.20;0.00;;;;;5.87;76.19;98204.84;5035422;28;8859;-64
2022/04/08 04:54:56;;;;;;;;;0.00;0.00;;;;;5.85;76.26;98196.22;5035445;28;8836;-64
2022/04/08 04:57:24;;;;;;;;;0.00;0.00;;;;;5.85;76.37;98210.25;5037536;28;8923;-63
2022/04/08 04:59:52;;;;;;;;;0.00;0.00;;;;;5.84;76.41;98205.13;5031759;28;8843;-63
2022/04/08 05:02:20;;;;;;;;;0.40;0.00;;;;;5.84;76.54;98213.03;5032499;28;8864;-63
2022/04/08 05:04:48;;;;;;;;;1.60;0.80;;;;;5.80;76.56;98203.72;5031340;28;8837;-64
2022/04/08 05:07:15;;;;;;;;;0.80;0.40;;;;;5.76;76.31;98213.66;5033029;28;8860;-63
2022/04/08 05:09:43;;;;;;;;;1.00;0.00;;;;;5.70;76.31;98219.47;5033106;28;9149;-63
2022/04/08 05:12:11;;;;;;;;;1.00;1.00;;;;;5.64;76.72;98216.56;5032390;28;8863;-63
2022/04/08 05:14:39;;;;;;;;;2.60;2.60;;;;;5.61;76.86;98216.84;5032904;28;8844;-63
2022/04/08 05:17:06;;;;;;;;;1.00;1.00;;;;;5.58;76.48;98223.22;5034056;28;8856;-64
2022/04/08 05:19:34;;;;;;;;;5.20;3.00;;;;;5.60;76.18;98225.69;5032926;28;8843;-64
2022/04/08 05:22:02;;;;;;;;;1.00;1.00;;;;;5.64;76.75;98235.03;5065556;28;9511;-63
2022/04/08 05:24:30;;;;;;;;;2.60;1.00;;;;;5.68;76.21;98226.72;5044920;28;8834;-64
2022/04/08 05:26:57;;;;;;;;;0.40;0.00;;;;;5.73;75.85;98226.31;5053643;28;8838;-63
2022/04/08 05:29:25;;;;;;;;;0.80;0.80;;;;;5.74;75.99;98234.09;5053590;28;8880;-64
2022/04/08 05:31:53;;;;;;;;;0.80;0.20;;;;;5.78;76.39;98235.50;5053623;28;8861;-63
2022/04/08 05:34:21;;;;;;;;;0.60;0.00;;;;;5.80;75.84;98238.03;5053131;28;8975;-64
2022/04/08 05:36:49;;;;;;;;;1.00;1.00;;;;;5.80;76.08;98241.53;5053863;28;8842;-64
2022/04/08 05:39:18;;;;;;;;;1.00;1.00;;;;;5.81;76.60;98239.72;5053936;28;8860;-63
2022/04/08 05:41:45;;;;;;;;;1.00;1.00;;;;;5.82;75.72;98239.59;5052158;28;8838;-63
2022/04/08 05:44:13;;;;;;;;;3.20;3.00;;;;;5.84;76.23;98237.63;5051455;28;8850;-64
2022/04/08 05:46:41;;;;;;;;;2.60;2.60;;;;;5.85;75.51;98241.94;5050859;28;8868;-63
2022/04/08 05:49:09;;;;;;;;;4.00;0.80;;;;;5.85;75.63;98238.47;5051382;28;8823;-63
2022/04/08 05:51:36;;;;;;;;;3.60;3.00;;;;;5.83;75.72;98240.41;5032854;28;8953;-63
2022/04/08 05:54:08;;;;;;;;;3.00;3.00;;;;;5.80;75.87;98240.69;5033143;28;8856;-64
2022/04/08 05:56:36;;;;;;;;;5.60;5.20;;;;;5.82;75.63;98239.59;5032871;28;10527;-63
2022/04/08 05:59:03;;;;;;;;;3.80;3.80;;;;;5.85;76.35;98246.41;5032075;28;8824;-64
2022/04/08 06:01:31;;;;;;;;;3.00;3.00;;;;;5.87;75.79;98250.59;5032245;28;8848;-62
2022/04/08 06:03:59;;;;;;;;;1.00;1.00;;;;;5.88;75.47;98246.13;5047753;28;8830;-63
2022/04/08 06:06:27;;;;;;;;;3.00;3.00;;;;;5.87;76.21;98245.31;5048228;28;8834;-63
2022/04/08 06:09:00;;;;;;;;;3.40;1.80;;;;;5.88;75.85;98248.75;5051976;28;8955;-63
2022/04/08 06:11:28;;;;;;;;;1.40;1.00;;;;;5.85;75.67;98228.72;5050567;28;8982;-63
2022/04/08 06:13:57;;;;;;;;;3.80;3.80;;;;;5.84;76.10;98242.09;5031549;28;8832;-63
2022/04/08 06:16:25;;;;;;;;;2.20;2.20;;;;;5.85;75.67;98239.31;5039744;28;8862;-64
2022/04/08 06:18:53;;;;;;;;;1.00;1.00;;;;;5.93;75.63;98233.34;5051496;28;8968;-63
2022/04/08 06:21:21;;;;;;;;;1.40;0.40;;;;;5.94;75.75;98242.94;5020538;28;8865;-63
2022/04/08 06:23:51;;;;;;;;;0.60;0.60;;;;;5.92;75.83;98236.97;5050826;28;8823;-63
2022/04/08 06:26:19;;;;;;;;;3.40;3.40;;;;;5.93;75.69;98236.81;5051927;28;9626;-64
2022/04/08 06:28:47;;;;;;;;;3.40;3.00;;;;;5.97;75.46;98240.03;5052365;28;9496;-65
2022/04/08 06:31:15;;;;;;;;;1.00;1.00;;;;;6.03;75.44;98242.13;5052646;28;8878;-64
2022/04/08 06:33:44;;;;;;;;;2.20;1.00;;;;;6.08;74.70;98229.34;5051735;28;8850;-65
2022/04/08 06:36:12;;;;;;;;;4.00;1.80;;;;;6.15;75.20;98233.13;5036236;28;9520;-63
2022/04/08 06:38:41;;;;;;;;;2.20;2.20;;;;;6.19;75.36;98221.28;5032255;28;8837;-64
2022/04/08 06:41:09;;;;;;;;;2.20;2.20;;;;;6.25;75.05;98228.69;5032104;28;8871;-63
2022/04/08 06:43:37;;;;;;;;;1.40;1.40;;;;;6.30;74.60;98229.94;5032182;28;8836;-63
2022/04/08 06:46:04;;;;;;;;;1.40;0.80;;;;;6.38;74.79;98226.63;5041837;28;9011;-64
2022/04/08 06:48:33;;;;;;;;;6.00;3.00;;;;;6.46;74.75;98224.94;5031953;28;8860;-64
2022/04/08 06:51:04;;;;;;;;;4.00;3.40;;;;;6.57;74.83;98237.19;5032120;28;8858;-64
2022/04/08 06:53:32;;;;;;;;;3.00;3.00;;;;;6.61;74.40;98235.94;5049212;28;8829;-64
2022/04/08 06:56:01;;;;;;;;;6.00;6.00;;;;;6.68;74.02;98234.41;5050187;28;8866;-63
2022/04/08 06:58:30;;;;;;;;;0.80;0.20;;;;;6.76;74.18;98242.47;5050144;28;8827;-64
2022/04/08 07:00:58;;;;;;;;;3.60;3.60;;;;;6.82;73.70;98236.63;5050998;28;8831;-63
2022/04/08 07:03:26;;;;;;;;;3.80;3.40;;;;;6.88;73.83;98238.69;5036749;28;8840;-63
2022/04/08 07:05:54;;;;;;;;;3.20;1.80;;;;;6.91;73.96;98235.78;5032230;28;8848;-62
2022/04/08 07:08:21;;;;;;;;;0.80;0.00;;;;;6.95;73.90;98243.28;5043744;28;9743;-63
2022/04/08 07:10:49;;;;;;;;;3.00;3.00;;;;;7.09;73.66;98228.78;5056439;28;8850;-63
2022/04/08 07:13:17;;;;;;;;;3.20;2.60;;;;;7.23;73.25;98223.88;5055654;28;8868;-63
2022/04/08 07:15:45;;;;;;;;;3.40;3.40;;;;;7.41;73.11;98229.25;5043188;28;8859;-63
2022/04/08 07:18:13;;;;;;;;;5.60;4.00;;;;;7.55;72.71;98212.88;5035092;28;9840;-63
2022/04/08 07:20:40;;;;;;;;;3.60;3.60;;;;;7.66;72.19;98216.19;5053020;28;8842;-64
2022/04/08 07:23:08;;;;;;;;;1.40;1.00;;;;;7.74;72.22;98211.84;5054597;28;9449;-64
2022/04/08 07:25:36;;;;;;;;;3.60;3.00;;;;;7.75;71.93;98205.56;5035688;28;8845;-63
2022/04/08 07:28:04;;;;;;;;;3.80;3.00;;;;;7.74;72.59;98200.41;5035008;28;8962;-67
2022/04/08 07:30:32;;;;;;;;;1.80;1.00;;;;;7.71;72.59;98200.69;5037041;28;8861;-62
2022/04/08 07:33:01;;;;;;;;;4.00;4.00;;;;;7.68;72.34;98205.44;5054833;28;8819;-63
2022/04/08 07:35:30;;;;;;;;;4.00;0.20;;;;;7.75;72.11;98202.09;5055428;28;8854;-63
2022/04/08 07:37:58;;;;;;;;;5.20;4.00;;;;;7.90;72.05;98205.91;5054301;28;8853;-63
2022/04/08 07:40:26;;;;;;;;;3.40;3.40;;;;;7.93;71.49;98211.75;5045171;28;8840;-63
2022/04/08 07:42:54;;;;;;;;;6.80;6.20;;;;;7.98;71.61;98213.94;5034209;28;8832;-63
2022/04/08 07:45:27;;;;;;;;;5.20;4.00;;;;;7.98;71.65;98206.81;5043703;28;8992;-63
2022/04/08 07:47:55;;;;;;;;;6.00;4.00;;;;;8.08;71.47;98210.25;5054924;28;8873;-63
2022/04/08 07:50:23;;;;;;;;;3.20;3.20;;;;;8.20;70.74;98219.69;5054827;28;8857;-66
2022/04/08 07:52:51;;;;;;;;;4.80;3.20;;;;;8.23;70.56;98213.25;5052470;28;8958;-63
2022/04/08 07:55:20;;;;;;;;;8.60;6.60;;;;;8.24;70.57;98210.47;5054342;28;8844;-63
2022/04/08 07:57:48;;;;;;;;;3.00;3.00;;;;;8.29;70.77;98213.47;5020048;28;8888;-63
2022/04/08 08:00:15;;;;;;;;;1.40;1.40;;;;;8.32;70.75;98212.34;5034997;28;8836;-63
2022/04/08 08:02:43;;;;;;;;;3.20;3.20;;;;;8.38;70.45;98212.56;5043052;28;9514;-63
2022/04/08 08:05:11;;;;;;;;;3.50;3.50;;;;;8.43;70.13;98199.69;5054969;28;8849;-63
2022/04/08 08:07:39;;;;;;;;;4.00;4.00;;;;;8.47;70.38;98211.69;5053825;28;8848;-63
2022/04/08 08:10:07;;;;;;;;;4.75;3.50;;;;;8.51;70.17;98204.28;5054338;28;8824;-64
2022/04/08 08:12:35;;;;;;;;;4.00;4.00;;;;;8.62;70.11;98210.19;5053665;28;8834;-63
2022/04/08 08:15:02;;;;;;;;;1.50;1.50;;;;;8.71;69.49;98198.63;5046973;28;8840;-63
2022/04/08 08:17:30;;;;;;;;;1.50;1.50;;;;;8.76;69.66;98206.97;5034343;28;9673;-63
2022/04/08 08:19:58;;;;;;;;;3.00;3.00;;;;;8.76;69.35;98214.09;5033907;28;8863;-63
2022/04/08 08:22:26;;;;;;;;;3.75;3.75;;;;;8.79;69.32;98209.31;5034301;28;8840;-63
2022/04/08 08:24:54;;;;;;;;;0.50;0.00;;;;;8.89;69.41;98206.59;5044944;28;8851;-63
2022/04/08 08:27:21;;;;;;;;;4.00;4.00;;;;;8.93;69.29;98208.78;5053417;28;8989;-63
2022/04/08 08:29:49;;;;;;;;;4.00;4.00;;;;;8.93;69.16;98205.28;5054269;28;8851;-63
2022/04/08 08:32:17;;;;;;;;;2.00;2.00;;;;;8.89;68.91;98207.41;5053021;28;8966;-63
2022/04/08 08:34:45;;;;;;;;;4.00;4.00;;;;;8.84;68.88;98196.44;5054526;28;8830;-63
2022/04/08 08:37:13;;;;;;;;;4.00;4.00;;;;;8.82;69.07;98190.44;5046168;28;8843;-63
2022/04/08 08:39:41;;;;;;;;;3.00;3.00;;;;;8.83;69.11;98193.91;5035018;28;8970;-63
2022/04/08 08:42:08;;;;;;;;;3.50;3.50;;;;;8.89;68.94;98194.13;5034989;28;8853;-63
2022/04/08 08:44:36;;;;;;;;;2.00;1.00;;;;;8.93;68.81;98189.34;5041890;28;8844;-64
2022/04/08 08:47:04;;;;;;;;;4.50;3.00;;;;;8.95;68.78;98190.88;5034185;28;8840;-64
2022/04/08 08:49:32;;;;;;;;;3.25;3.25;;;;;8.97;68.93;98186.22;5034208;28;8848;-63
2022/04/08 08:52:01;;;;;;;;;4.00;3.25;;;;;8.93;68.08;98192.84;5034604;28;8848;-63
2022/04/08 08:54:31;;;;;;;;;4.50;3.75;;;;;8.93;68.49;98186.69;5035607;28;8831;-64
2022/04/08 08:56:59;;;;;;;;;3.25;2.00;;;;;8.97;68.22;98194.19;5034792;28;8861;-64
2022/04/08 08:59:28;;;;;;;;;3.00;3.00;;;;;9.02;68.33;98193.72;5033816;28;9483;-64
2022/04/08 09:01:57;;;;;;;;;3.50;3.00;;;;;9.06;68.42;98203.91;5049366;28;8863;-63
2022/04/08 09:04:26;;;;;;;;;4.00;4.00;;;;;9.04;67.98;98189.94;5051981;28;8877;-64
2022/04/08 09:06:54;;;;;;;;;2.50;2.50;;;;;9.03;67.84;98182.94;5052154;28;9722;-63
2022/04/08 09:09:23;;;;;;;;;3.00;1.00;;;;;9.01;68.22;98182.28;5054003;28;8849;-63
2022/04/08 09:11:50;;;;;;;;;3.50;3.50;;;;;9.07;68.05;98179.00;5053174;28;8869;-63
2022/04/08 09:14:18;;;;;;;;;3.50;3.50;;;;;9.11;67.72;98175.03;5053586;28;8830;-64
2022/04/08 09:16:47;;;;;;;;;3.75;3.75;;;;;9.12;67.63;98171.41;5034236;28;8854;-64
2022/04/08 09:19:15;;;;;;;;;3.00;3.00;;;;;9.15;67.49;98168.44;5033803;28;8843;-64
2022/04/08 09:21:43;;;;;;;;;2.50;2.00;;;;;9.20;67.51;98157.34;5033246;28;8877;-63
2022/04/08 09:24:11;;;;;;;;;3.25;3.25;;;;;9.24;67.64;98164.00;5033387;28;8844;-64
2022/04/08 09:26:39;;;;;;;;;4.00;3.25;;;;;9.24;67.41;98142.75;5052525;28;8814;-63
2022/04/08 09:29:06;;;;;;;;;3.00;3.00;;;;;9.22;66.83;98137.63;5053232;28;9008;-63
2022/04/08 09:31:34;;;;;;;;;4.25;3.50;;;;;9.26;67.23;98130.97;5052413;28;8951;-64
2022/04/08 09:34:02;;;;;;;;;1.00;1.00;;;;;9.32;67.09;98124.19;5053423;28;9664;-63
2022/04/08 09:36:30;;;;;;;;;5.00;5.00;;;;;9.41;67.08;98118.78;5053384;28;8822;-64
2022/04/08 09:38:58;;;;;;;;;3.00;1.50;;;;;9.42;67.04;98109.81;5052239;28;8853;-63
2022/04/08 09:41:26;;;;;;;;;3.00;3.00;;;;;9.44;66.89;98105.19;5052788;28;8838;-63
2022/04/08 09:43:53;;;;;;;;;4.00;3.00;;;;;9.47;66.30;98104.84;5051476;28;8853;-64
2022/04/08 09:46:21;;;;;;;;;0.50;0.50;;;;;9.56;66.52;98098.56;5050984;28;9622;-63
2022/04/08 09:48:49;;;;;;;;;2.00;2.00;;;;;9.70;65.87;98097.97;5052963;28;8851;-63
2022/04/08 09:51:20;;;;;;;;;3.50;3.25;;;;;9.83;66.30;98081.53;5034160;28;9822;-63
2022/04/08 09:53:49;;;;;;;;;4.00;3.75;;;;;9.94;65.82;98078.59;5052045;28;8969;-63
2022/04/08 09:56:16;;;;;;;;;4.00;3.50;;;;;10.02;65.79;98081.25;5034608;28;8816;-64
2022/04/08 09:58:44;;;;;;;;;7.00;4.00;;;;;10.09;65.08;98085.78;5031382;28;8898;-63
2022/04/08 10:01:12;;;;;;;;;5.00;5.00;;;;;10.13;64.99;98079.13;5032337;28;8844;-63
2022/04/08 10:03:40;;;;;;;;;4.50;4.50;;;;;10.20;65.54;98079.31;5035422;28;8971;-67
2022/04/08 10:06:08;;;;;;;;;3.00;3.00;;;;;10.21;65.19;98068.50;5031554;28;9705;-64
2022/04/08 10:08:35;;;;;;;;;2.00;2.00;;;;;10.15;64.78;98071.81;5031205;28;8825;-63
2022/04/08 10:11:05;;;;;;;;;3.00;1.50;;;;;10.06;65.23;98072.81;5051013;28;8842;-65
2022/04/08 10:13:33;;;;;;;;;1.50;1.00;;;;;10.04;65.12;98077.47;5033339;28;8824;-63
2022/04/08 10:16:01;;;;;;;;;3.00;3.00;;;;;9.98;64.72;98077.25;5031542;28;8879;-64
2022/04/08 10:18:29;;;;;;;;;2.00;2.00;;;;;9.90;64.95;98075.41;5032146;28;8832;-63
2022/04/08 10:20:57;;;;;;;;;1.00;1.00;;;;;9.83;65.00;98068.25;5031735;28;9531;-66
2022/04/08 10:23:26;;;;;;;;;1.00;1.00;;;;;9.76;64.83;98065.41;5030173;28;8832;-63
2022/04/08 10:25:57;;;;;;;;;3.00;1.50;;;;;9.72;64.99;98066.72;5039737;28;8872;-63
2022/04/08 10:28:26;;;;;;;;;1.00;1.00;;;;;9.73;64.81;98070.22;5030365;28;8849;-64
2022/04/08 10:30:53;;;;;;;;;0.00;0.00;;;;;9.72;64.84;98063.25;5031547;28;8860;-64
2022/04/08 10:33:21;;;;;;;;;1.00;1.00;;;;;9.70;64.33;98071.38;5047247;28;8967;-63
2022/04/08 10:35:49;;;;;;;;;0.50;0.50;;;;;9.69;64.43;98064.41;5052414;28;8854;-63
2022/04/08 10:38:17;;;;;;;;;0.00;0.00;;;;;9.68;64.58;98069.88;5050518;28;8819;-65
2022/04/08 10:40:50;;;;;;;;;0.00;0.00;;;;;9.69;63.91;98061.75;5051861;28;9500;-64
2022/04/08 10:43:18;;;;;;;;;0.50;0.25;;;;;9.70;63.75;98065.22;5054741;28;8827;-63
2022/04/08 10:45:46;;;;;;;;;1.00;1.00;;;;;9.74;63.64;98064.75;5052961;28;8878;-64
2022/04/08 10:48:14;;;;;;;;;3.00;1.00;;;;;9.78;63.70;98067.94;5052420;28;8838;-64
2022/04/08 10:50:41;;;;;;;;;0.50;0.50;;;;;9.83;63.62;98071.75;5054577;28;8834;-64
2022/04/08 10:53:09;;;;;;;;;1.00;1.00;;;;;9.92;63.57;98070.75;5055293;28;8823;-63
2022/04/08 10:55:37;;;;;;;;;1.00;1.00;;;;;10.00;63.27;98067.28;5054994;28;8916;-64
2022/04/08 10:58:05;;;;;;;;;3.25;3.00;;;;;10.02;62.95;98066.13;5051904;28;8854;-63
2022/04/08 11:00:33;;;;;;;;;1.00;1.00;;;;;9.99;63.36;98070.94;5054040;28;8846;-64
2022/04/08 11:03:01;;;;;;;;;1.50;1.50;;;;;9.96;62.94;98066.75;5044765;28;8962;-64
2022/04/08 11:05:28;;;;;;;;;0.75;0.75;;;;;9.91;63.04;98053.16;5035236;28;8841;-63
2022/04/08 11:07:56;;;;;;;;;1.00;1.00;;;;;9.86;63.34;98063.44;5033999;28;8839;-63
2022/04/08 11:10:24;;;;;;;;;3.00;2.00;;;;;9.85;63.34;98053.81;5036935;28;8833;-63
2022/04/08 11:12:52;;;;;;;;;1.00;1.00;;;;;9.81;63.48;98047.13;5036120;28;8832;-63
2022/04/08 11:15:19;;;;;;;;;1.00;1.00;;;;;9.83;63.32;98046.97;5036580;28;9549;-63
2022/04/08 11:17:50;;;;;;;;;0.50;0.50;;;;;9.83;63.57;98044.31;5035955;28;8876;-64
2022/04/08 11:20:17;;;;;;;;;1.00;1.00;;;;;9.85;63.59;98048.50;5037014;28;8859;-63
2022/04/08 11:22:45;;;;;;;;;1.00;1.00;;;;;9.78;63.37;98047.47;5053510;28;8826;-64
2022/04/08 11:25:13;;;;;;;;;3.50;3.00;;;;;9.76;63.20;98038.00;5056806;28;8842;-63
2022/04/08 11:27:42;;;;;;;;;2.00;2.00;;;;;9.72;63.22;98032.19;5037919;28;8884;-63
2022/04/08 11:30:09;;;;;;;;;1.50;1.00;;;;;9.70;63.71;98023.53;5035269;28;8935;-63
2022/04/08 11:32:39;;;;;;;;;4.00;2.50;;;;;9.67;63.13;98015.91;5036439;28;8824;-64
2022/04/08 11:35:07;;;;;;;;;1.00;1.00;;;;;9.67;63.20;98010.59;5037729;28;8882;-64
2022/04/08 11:37:34;;;;;;;;;1.00;1.00;;;;;9.70;63.41;98015.56;5043054;28;8845;-63
2022/04/08 11:40:04;;;;;;;;;3.00;3.00;;;;;9.72;63.39;98000.28;5049702;28;8850;-63
2022/04/08 11:42:32;;;;;;;;;3.00;3.00;;;;;9.78;63.16;97998.81;5055637;28;8923;-64
2022/04/08 11:45:00;;;;;;;;;3.50;3.50;;;;;9.89;63.09;97990.50;5056265;28;8846;-63
2022/04/08 11:47:28;;;;;;;;;3.75;3.00;;;;;10.05;62.81;97991.38;5054837;28;8928;-63
2022/04/08 11:49:56;;;;;;;;;3.00;3.00;;;;;10.16;62.41;97990.22;5053706;28;8864;-64
2022/04/08 11:52:24;;;;;;;;;2.50;2.50;;;;;10.26;62.61;97994.34;5034346;28;8926;-64